Time;durP1;ratioP1;P1;durP2;ratioP2;P2;SDS_P1;SDS_P2;PMS_P1;PMS_P2;Temp;Humidity;BMP_temperature;BMP_pressure;BME280_temperature;BME280_humidity;BME280_pressure;Samples;Min_cycle;Max_cycle;Signal;HPM_P1;HPM_P2
2022/03/26 00:00:36;;;;;;;;;;;5.70;99.90;;;;;;5112930;28;19943;-66
2022/03/26 00:03:13;;;;;;;;;;;5.70;99.90;;;;;;5107036;28;20403;-66
2022/03/26 00:05:41;;;;;;;;;;;5.80;99.90;;;;;;5100749;28;20010;-65
2022/03/26 00:08:07;;;;;;;;;;;5.80;99.90;;;;;;5092642;28;19924;-65
2022/03/26 00:10:34;;;;;;;;;;;5.70;99.90;;;;;;5095655;28;19993;-65
2022/03/26 00:13:01;;;;;;;;;;;5.70;99.90;;;;;;5100792;28;19994;-66
2022/03/26 00:15:28;;;;;;;;;;;5.70;99.90;;;;;;5074306;28;19947;-66
2022/03/26 00:17:55;;;;;;;;;;;5.50;99.90;;;;;;5104668;28;20011;-65
2022/03/26 00:20:22;;;;;;;;;;;5.20;99.90;;;;;;5107601;28;19919;-66
2022/03/26 00:22:49;;;;;;;;;;;4.90;99.90;;;;;;5111302;28;19930;-63
2022/03/26 00:25:17;;;;;;;;;;;4.70;99.90;;;;;;5098631;28;19920;-66
2022/03/26 00:27:44;;;;;;;;;;;4.60;99.90;;;;;;5100472;28;20006;-63
2022/03/26 00:30:11;;;;;;;;;;;4.60;99.90;;;;;;5095027;28;19931;-63
2022/03/26 00:32:38;;;;;;;;;;;4.70;99.90;;;;;;5104218;28;20372;-66
2022/03/26 00:35:06;;;;;;;;;;;4.70;99.90;;;;;;5103862;28;19973;-65
2022/03/26 00:37:33;;;;;;;;;;;4.80;99.90;;;;;;5112382;28;19920;-66
2022/03/26 00:40:00;;;;;;;;;;;4.90;99.90;;;;;;5112388;28;20383;-66
2022/03/26 00:42:27;;;;;;;;;;;4.90;99.90;;;;;;5110908;28;19927;-66
2022/03/26 00:44:54;;;;;;;;;;;4.90;99.90;;;;;;5103902;28;19919;-65
2022/03/26 00:47:21;;;;;;;;;;;4.90;99.90;;;;;;5112203;28;19920;-65
2022/03/26 00:49:47;;;;;;;;;;;4.80;99.90;;;;;;5112250;28;19966;-65
2022/03/26 00:52:14;;;;;;;;;;;4.80;99.90;;;;;;5108036;28;19950;-65
2022/03/26 00:54:41;;;;;;;;;;;4.80;99.90;;;;;;5109046;28;19923;-66
2022/03/26 00:57:09;;;;;;;;;;;4.90;99.90;;;;;;5103268;28;20335;-66
2022/03/26 00:59:36;;;;;;;;;;;4.90;99.90;;;;;;5109658;28;19972;-65
2022/03/26 01:02:03;;;;;;;;;;;4.80;99.90;;;;;;5098562;28;20399;-64
2022/03/26 01:04:30;;;;;;;;;;;4.70;99.90;;;;;;5108989;28;19926;-65
2022/03/26 01:06:57;;;;;;;;;;;4.60;99.90;;;;;;5103185;28;20536;-65
2022/03/26 01:09:24;;;;;;;;;;;4.50;99.90;;;;;;5109983;28;19920;-65
2022/03/26 01:11:50;;;;;;;;;;;4.40;99.90;;;;;;5092686;28;20376;-66
2022/03/26 01:14:18;;;;;;;;;;;4.50;99.90;;;;;;5111252;28;19988;-66
2022/03/26 01:16:44;;;;;;;;;;;4.50;99.90;;;;;;5103363;28;19920;-65
2022/03/26 01:19:11;;;;;;;;;;;4.60;99.90;;;;;;5110479;28;19919;-65
2022/03/26 01:21:38;;;;;;;;;;;4.60;99.90;;;;;;5094340;28;19924;-66
2022/03/26 01:24:05;;;;;;;;;;;4.50;99.90;;;;;;5111233;28;19924;-65
2022/03/26 01:26:32;;;;;;;;;;;4.50;99.90;;;;;;5085933;28;20277;-65
2022/03/26 01:28:59;;;;;;;;;;;4.40;99.90;;;;;;5106741;28;19924;-65
2022/03/26 01:31:26;;;;;;;;;;;4.40;99.90;;;;;;5097860;28;19930;-65
2022/03/26 01:33:53;;;;;;;;;;;4.50;99.90;;;;;;5111155;28;19943;-65
2022/03/26 01:36:22;;;;;;;;;;;4.50;99.90;;;;;;5109862;28;19924;-65
2022/03/26 01:38:49;;;;;;;;;;;4.50;99.90;;;;;;5112784;28;19993;-65
2022/03/26 01:41:17;;;;;;;;;;;4.40;99.90;;;;;;5108986;28;20022;-65
2022/03/26 01:43:46;;;;;;;;;;;4.30;99.90;;;;;;5115790;28;19923;-65
2022/03/26 01:46:13;;;;;;;;;;;4.20;99.90;;;;;;5115127;28;20422;-64
2022/03/26 01:48:40;;;;;;;;;;;4.20;99.90;;;;;;5098210;28;19974;-66
2022/03/26 01:51:16;;;;;;;;;;;4.20;99.90;;;;;;5094639;28;20015;-65
2022/03/26 01:53:47;;;;;;;;;;;4.20;99.90;;;;;;5095217;28;19920;-65
2022/03/26 01:56:16;;;;;;;;;;;4.20;99.90;;;;;;5107233;28;20387;-65
2022/03/26 01:58:43;;;;;;;;;;;4.30;99.90;;;;;;5106926;28;19923;-65
2022/03/26 02:01:11;;;;;;;;;;;4.30;99.90;;;;;;5113480;22;20244;-63
2022/03/26 02:03:38;;;;;;;;;;;4.30;99.90;;;;;;5102841;28;20430;-62
2022/03/26 02:06:05;;;;;;;;;;;4.40;99.90;;;;;;5115647;28;19950;-63
2022/03/26 02:08:32;;;;;;;;;;;4.40;99.90;;;;;;5115457;28;19920;-63
2022/03/26 02:11:00;;;;;;;;;;;4.40;99.90;;;;;;5101013;28;20439;-63
2022/03/26 02:13:47;;;;;;;;;;;4.30;99.90;;;;;;5110279;28;19927;-63
2022/03/26 02:16:14;;;;;;;;;;;4.30;99.90;;;;;;5115041;28;19926;-63
2022/03/26 02:18:41;;;;;;;;;;;4.20;99.90;;;;;;5106144;28;19973;-63
2022/03/26 02:21:09;;;;;;;;;;;4.20;99.90;;;;;;5106082;28;20306;-64
2022/03/26 02:23:36;;;;;;;;;;;4.20;99.90;;;;;;5115061;28;19969;-63
2022/03/26 02:26:03;;;;;;;;;;;4.10;99.90;;;;;;5115020;28;20333;-63
2022/03/26 02:28:31;;;;;;;;;;;4.10;99.90;;;;;;5103942;28;19973;-63
2022/03/26 02:30:57;;;;;;;;;;;4.10;99.90;;;;;;5113785;28;20014;-63
2022/03/26 02:33:24;;;;;;;;;;;4.00;99.90;;;;;;5114855;28;19919;-64
2022/03/26 02:35:51;;;;;;;;;;;3.80;99.90;;;;;;5107694;28;19923;-63
2022/03/26 02:38:18;;;;;;;;;;;3.60;99.90;;;;;;5108722;28;20468;-63
2022/03/26 02:40:45;;;;;;;;;;;3.50;99.90;;;;;;5114608;28;20372;-63
2022/03/26 02:43:12;;;;;;;;;;;3.50;99.90;;;;;;5114136;28;19923;-63
2022/03/26 02:45:43;;;;;;;;;;;3.40;99.90;;;;;;5103391;28;20429;-64
2022/03/26 02:48:12;;;;;;;;;;;3.30;99.90;;;;;;5107362;28;20383;-63
2022/03/26 02:50:40;;;;;;;;;;;3.30;99.90;;;;;;5114443;28;20383;-63
2022/03/26 02:53:07;;;;;;;;;;;3.30;99.90;;;;;;5114108;28;19919;-63
2022/03/26 02:55:34;;;;;;;;;;;3.40;99.90;;;;;;5098925;28;19920;-63
2022/03/26 02:58:02;;;;;;;;;;;3.50;99.90;;;;;;5089707;28;19928;-63
2022/03/26 03:00:29;;;;;;;;;;;3.50;99.90;;;;;;5081803;28;19920;-63
2022/03/26 03:02:56;;;;;;;;;;;3.50;99.90;;;;;;5080095;28;20265;-63
2022/03/26 03:05:23;;;;;;;;;;;3.50;99.90;;;;;;5105765;28;19923;-63
2022/03/26 03:07:50;;;;;;;;;;;3.50;99.90;;;;;;5114267;28;20383;-63
2022/03/26 03:10:17;;;;;;;;;;;3.40;99.90;;;;;;5113945;28;19927;-63
2022/03/26 03:12:45;;;;;;;;;;;3.30;99.90;;;;;;5102836;28;19919;-63
2022/03/26 03:15:12;;;;;;;;;;;3.20;99.90;;;;;;5106924;28;19926;-63
2022/03/26 03:17:40;;;;;;;;;;;3.20;99.90;;;;;;5113755;28;19973;-63
2022/03/26 03:20:08;;;;;;;;;;;3.20;99.90;;;;;;5106376;28;19946;-63
2022/03/26 03:22:36;;;;;;;;;;;3.20;99.90;;;;;;5105092;28;19923;-63
2022/03/26 03:25:03;;;;;;;;;;;3.20;99.90;;;;;;5113876;28;19920;-63
2022/03/26 03:27:30;;;;;;;;;;;3.30;99.90;;;;;;5113857;28;19973;-63
2022/03/26 03:29:57;;;;;;;;;;;3.30;99.90;;;;;;5104793;28;20332;-63
2022/03/26 03:32:24;;;;;;;;;;;3.30;99.90;;;;;;5107955;28;19984;-63
2022/03/26 03:34:51;;;;;;;;;;;3.30;99.90;;;;;;5113819;28;19924;-63
2022/03/26 03:37:18;;;;;;;;;;;3.30;99.90;;;;;;5104871;28;20317;-63
2022/03/26 03:39:45;;;;;;;;;;;3.30;99.90;;;;;;5104973;28;20034;-63
2022/03/26 03:42:12;;;;;;;;;;;3.30;99.90;;;;;;5113131;28;19980;-63
2022/03/26 03:44:39;;;;;;;;;;;3.30;99.90;;;;;;5104220;28;19920;-63
2022/03/26 03:47:06;;;;;;;;;;;3.30;99.90;;;;;;5104962;28;19973;-63
2022/03/26 03:49:34;;;;;;;;;;;3.20;99.90;;;;;;5113398;28;19919;-63
2022/03/26 03:52:01;;;;;;;;;;;3.10;99.90;;;;;;5112873;28;20337;-63
2022/03/26 03:54:28;;;;;;;;;;;3.10;99.90;;;;;;5085323;28;19920;-63
2022/03/26 03:56:56;;;;;;;;;;;3.00;99.90;;;;;;5111893;28;19923;-63
2022/03/26 03:59:23;;;;;;;;;;;3.10;99.90;;;;;;5113058;28;20014;-63
2022/03/26 04:01:50;;;;;;;;;;;3.10;99.90;;;;;;5094954;28;19966;-63
2022/03/26 04:04:17;;;;;;;;;;;3.10;99.90;;;;;;5086255;28;20018;-63
2022/03/26 04:06:44;;;;;;;;;;;3.10;99.90;;;;;;5113106;28;19927;-63
2022/03/26 04:09:11;;;;;;;;;;;3.10;99.90;;;;;;5102698;28;19943;-63
2022/03/26 04:11:38;;;;;;;;;;;3.10;99.90;;;;;;5097246;28;20441;-63
2022/03/26 04:14:06;;;;;;;;;;;3.10;99.90;;;;;;5112842;28;20387;-63
2022/03/26 04:16:33;;;;;;;;;;;3.10;99.90;;;;;;5110944;28;19980;-63
2022/03/26 04:19:00;;;;;;;;;;;3.00;99.90;;;;;;5103829;28;19919;-63
2022/03/26 04:21:27;;;;;;;;;;;3.00;99.90;;;;;;5112447;28;20356;-63
2022/03/26 04:23:54;;;;;;;;;;;3.00;99.90;;;;;;5112607;28;19935;-63
2022/03/26 04:26:21;;;;;;;;;;;2.90;99.90;;;;;;5103621;28;19919;-63
2022/03/26 04:28:48;;;;;;;;;;;2.90;99.90;;;;;;5104124;28;19962;-63
2022/03/26 04:31:15;;;;;;;;;;;2.90;99.90;;;;;;5112271;28;19920;-63
2022/03/26 04:33:42;;;;;;;;;;;2.90;99.90;;;;;;5109215;28;19947;-63
2022/03/26 04:36:09;;;;;;;;;;;2.90;99.90;;;;;;5103779;28;19965;-63
2022/03/26 04:38:36;;;;;;;;;;;2.90;99.90;;;;;;5112573;28;19955;-63
2022/03/26 04:41:03;;;;;;;;;;;3.00;99.90;;;;;;5112042;28;19919;-62
2022/03/26 04:43:30;;;;;;;;;;;3.00;99.90;;;;;;5102116;28;19920;-63
2022/03/26 04:45:57;;;;;;;;;;;3.00;99.90;;;;;;5111640;28;20629;-63
2022/03/26 04:48:24;;;;;;;;;;;2.90;99.90;;;;;;5112485;28;19920;-63
2022/03/26 04:50:52;;;;;;;;;;;2.80;99.90;;;;;;5105468;28;19923;-63
2022/03/26 04:53:18;;;;;;;;;;;2.70;99.90;;;;;;5088349;28;19927;-63
2022/03/26 04:55:45;;;;;;;;;;;2.60;99.90;;;;;;5112358;28;20433;-63
2022/03/26 04:58:12;;;;;;;;;;;2.70;99.90;;;;;;5108507;28;19919;-63
2022/03/26 05:00:40;;;;;;;;;;;2.60;99.90;;;;;;5103447;28;19972;-63
2022/03/26 05:03:08;;;;;;;;;;;2.70;99.90;;;;;;5112147;28;20429;-63
2022/03/26 05:05:35;;;;;;;;;;;2.60;99.90;;;;;;5112297;28;20364;-63
2022/03/26 05:08:02;;;;;;;;;;;2.50;99.90;;;;;;5106642;28;19919;-63
2022/03/26 05:10:29;;;;;;;;;;;2.50;99.90;;;;;;5107785;28;19919;-63
2022/03/26 05:12:57;;;;;;;;;;;2.50;99.90;;;;;;5115968;28;19928;-63
2022/03/26 05:15:27;;;;;;;;;;;2.50;99.90;;;;;;5116323;28;20085;-63
2022/03/26 05:17:54;;;;;;;;;;;2.40;99.90;;;;;;5103569;28;19920;-63
2022/03/26 05:20:21;;;;;;;;;;;2.30;99.90;;;;;;5110415;28;19920;-63
2022/03/26 05:22:49;;;;;;;;;;;2.30;99.90;;;;;;5115945;28;19919;-63
2022/03/26 05:25:16;;;;;;;;;;;2.30;99.90;;;;;;5112467;28;19920;-63
2022/03/26 05:27:44;;;;;;;;;;;2.30;99.90;;;;;;5107449;28;19928;-63
2022/03/26 05:30:11;;;;;;;;;;;2.30;99.90;;;;;;5116109;28;20334;-63
2022/03/26 05:32:38;;;;;;;;;;;2.40;99.90;;;;;;5101794;28;20035;-63
2022/03/26 05:35:11;;;;;;;;;;;2.40;99.90;;;;;;5108028;28;19920;-63
2022/03/26 05:37:38;;;;;;;;;;;2.50;99.90;;;;;;5115935;28;19951;-63
2022/03/26 05:40:07;;;;;;;;;;;2.50;99.90;;;;;;5115956;28;20108;-63
2022/03/26 05:42:35;;;;;;;;;;;2.60;99.90;;;;;;5105860;28;19923;-63
2022/03/26 05:45:03;;;;;;;;;;;2.70;99.90;;;;;;5107130;28;19923;-63
2022/03/26 05:47:30;;;;;;;;;;;2.80;99.90;;;;;;5115840;28;19920;-63
2022/03/26 05:49:57;;;;;;;;;;;2.80;99.90;;;;;;5112286;28;19969;-63
2022/03/26 05:52:24;;;;;;;;;;;2.80;99.90;;;;;;5106777;28;19920;-63
2022/03/26 05:54:50;;;;;;;;;;;2.80;99.90;;;;;;5116182;28;19924;-64
2022/03/26 05:57:18;;;;;;;;;;;2.80;99.90;;;;;;5097286;28;19919;-63
2022/03/26 05:59:46;;;;;;;;;;;2.70;99.90;;;;;;5104549;28;20380;-63
2022/03/26 06:02:13;;;;;;;;;;;2.60;99.90;;;;;;5115093;28;20379;-63
2022/03/26 06:04:41;;;;;;;;;;;2.60;99.90;;;;;;5115598;28;19919;-63
2022/03/26 06:07:08;;;;;;;;;;;2.70;99.90;;;;;;5108151;28;19924;-63
2022/03/26 06:09:35;;;;;;;;;;;2.80;99.90;;;;;;5111243;28;19924;-63
2022/03/26 06:12:03;;;;;;;;;;;2.90;99.90;;;;;;5114938;28;19931;-63
2022/03/26 06:14:30;;;;;;;;;;;3.00;99.90;;;;;;5106385;28;19920;-63
2022/03/26 06:16:57;;;;;;;;;;;3.00;99.90;;;;;;5105902;28;19931;-63
2022/03/26 06:19:25;;;;;;;;;;;3.10;99.90;;;;;;5114897;28;20320;-63
2022/03/26 06:21:52;;;;;;;;;;;3.10;99.90;;;;;;5111400;28;19920;-63
2022/03/26 06:24:20;;;;;;;;;;;3.20;99.90;;;;;;5106233;28;19920;-63
2022/03/26 06:26:48;;;;;;;;;;;3.20;99.90;;;;;;5114958;28;19927;-63
2022/03/26 06:29:16;;;;;;;;;;;3.30;99.90;;;;;;5092807;28;19928;-64
2022/03/26 06:31:44;;;;;;;;;;;3.40;99.90;;;;;;5103408;28;19920;-63
2022/03/26 06:34:11;;;;;;;;;;;3.40;99.90;;;;;;5114750;28;20295;-63
2022/03/26 06:36:39;;;;;;;;;;;3.50;99.90;;;;;;5114449;28;19923;-63
2022/03/26 06:39:06;;;;;;;;;;;3.50;99.90;;;;;;5106831;28;19923;-63
2022/03/26 06:41:39;;;;;;;;;;;3.70;99.90;;;;;;5105626;28;19988;-63
2022/03/26 06:44:07;;;;;;;;;;;3.80;99.90;;;;;;5114604;28;19923;-64
2022/03/26 06:46:35;;;;;;;;;;;4.00;99.90;;;;;;5114551;28;19924;-63
2022/03/26 06:49:02;;;;;;;;;;;4.10;99.90;;;;;;5104621;28;19920;-64
2022/03/26 06:51:30;;;;;;;;;;;4.30;99.90;;;;;;5109386;28;19924;-64
2022/03/26 06:53:58;;;;;;;;;;;4.50;99.90;;;;;;5114422;28;19927;-64
2022/03/26 06:56:25;;;;;;;;;;;4.70;99.90;;;;;;5104307;28;19923;-63
2022/03/26 06:58:52;;;;;;;;;;;4.80;99.90;;;;;;5105854;28;19920;-64
2022/03/26 07:01:18;;;;;;;;;;;5.00;99.90;;;;;;5113801;28;20445;-64
2022/03/26 07:03:54;;;;;;;;;;;5.10;99.90;;;;;;5114353;28;19927;-64
2022/03/26 07:06:23;;;;;;;;;;;5.20;99.90;;;;;;5104911;28;19973;-64
2022/03/26 07:08:50;;;;;;;;;;;5.40;99.90;;;;;;5112082;28;19920;-64
2022/03/26 07:11:16;;;;;;;;;;;5.50;99.90;;;;;;5113707;28;19919;-63
2022/03/26 07:13:44;;;;;;;;;;;5.60;99.90;;;;;;5106307;28;19923;-64
2022/03/26 07:16:11;;;;;;;;;;;5.70;99.90;;;;;;5106577;28;19920;-63
2022/03/26 07:18:38;;;;;;;;;;;5.90;99.90;;;;;;5113966;28;19942;-63
2022/03/26 07:21:05;;;;;;;;;;;6.00;99.90;;;;;;5113386;28;19949;-64
2022/03/26 07:23:32;;;;;;;;;;;6.10;99.90;;;;;;5104524;28;19920;-64
2022/03/26 07:25:59;;;;;;;;;;;6.10;99.90;;;;;;5105277;28;19942;-63
2022/03/26 07:28:26;;;;;;;;;;;6.20;99.90;;;;;;5113811;28;19920;-64
2022/03/26 07:30:53;;;;;;;;;;;6.30;99.90;;;;;;5112680;28;19969;-64
2022/03/26 07:33:19;;;;;;;;;;;6.40;99.90;;;;;;5100859;28;19920;-64
2022/03/26 07:35:46;;;;;;;;;;;6.50;99.90;;;;;;5093341;28;19973;-64
2022/03/26 07:38:13;;;;;;;;;;;6.60;99.90;;;;;;5113523;28;20033;-64
2022/03/26 07:40:40;;;;;;;;;;;6.70;99.90;;;;;;5106783;28;19927;-64
2022/03/26 07:43:07;;;;;;;;;;;6.80;99.90;;;;;;5101120;28;19924;-63
2022/03/26 07:45:35;;;;;;;;;;;7.00;99.90;;;;;;5091603;28;19993;-64
2022/03/26 07:48:02;;;;;;;;;;;7.00;99.90;;;;;;5094118;28;19923;-64
2022/03/26 07:50:29;;;;;;;;;;;7.10;99.90;;;;;;5094362;28;19923;-64
2022/03/26 07:52:56;;;;;;;;;;;7.30;99.90;;;;;;5112990;28;20312;-64
2022/03/26 07:55:23;;;;;;;;;;;7.40;99.90;;;;;;5106034;28;19924;-64
2022/03/26 07:57:50;;;;;;;;;;;7.60;99.90;;;;;;5078864;28;19924;-65
2022/03/26 08:00:17;;;;;;;;;;;7.70;99.90;;;;;;5115883;22;19923;-65
2022/03/26 08:02:44;;;;;;;;;;;7.90;99.90;;;;;;5088466;28;19962;-65
2022/03/26 08:05:11;;;;;;;;;;;8.10;99.90;;;;;;5092170;28;20372;-65
2022/03/26 08:07:38;;;;;;;;;;;8.20;99.90;;;;;;5085925;28;20372;-65
2022/03/26 08:10:05;;;;;;;;;;;8.20;99.90;;;;;;5090635;28;19924;-65
2022/03/26 08:12:32;;;;;;;;;;;8.30;99.90;;;;;;5079584;28;20385;-66
2022/03/26 08:14:59;;;;;;;;;;;8.40;99.90;;;;;;5072315;28;19976;-65
2022/03/26 08:17:29;;;;;;;;;;;8.50;99.90;;;;;;5067393;28;19930;-66
2022/03/26 08:19:56;;;;;;;;;;;8.70;99.90;;;;;;5064251;28;19920;-65
2022/03/26 08:22:23;;;;;;;;;;;8.80;99.90;;;;;;5071156;28;20376;-65
2022/03/26 08:24:50;;;;;;;;;;;8.90;99.90;;;;;;5072095;28;19956;-66
2022/03/26 08:27:17;;;;;;;;;;;9.10;99.90;;;;;;5078384;28;20019;-65
2022/03/26 08:29:46;;;;;;;;;;;9.20;99.90;;;;;;5089559;28;19986;-65
2022/03/26 08:32:13;;;;;;;;;;;9.40;99.90;;;;;;5082012;28;19921;-66
2022/03/26 08:34:40;;;;;;;;;;;9.50;99.90;;;;;;5064740;28;19924;-66
2022/03/26 08:37:07;;;;;;;;;;;9.70;99.90;;;;;;5083430;28;19982;-65
2022/03/26 08:39:34;;;;;;;;;;;9.80;99.90;;;;;;5092133;28;19973;-65
2022/03/26 08:42:01;;;;;;;;;;;9.80;99.90;;;;;;5087796;28;20346;-65
2022/03/26 08:44:28;;;;;;;;;;;9.90;99.90;;;;;;5073303;28;19973;-65
2022/03/26 08:46:55;;;;;;;;;;;10.00;99.90;;;;;;5083650;28;19950;-65
2022/03/26 08:49:22;;;;;;;;;;;10.20;99.90;;;;;;5092112;28;19924;-65
2022/03/26 08:51:49;;;;;;;;;;;10.20;99.90;;;;;;5080628;28;20015;-65
2022/03/26 08:54:16;;;;;;;;;;;10.40;99.90;;;;;;5069995;28;19920;-65
2022/03/26 08:58:51;;;;;;;22.90;13.05;;;10.40;99.90;;;;;;5182970;27;20121;-71
2022/03/26 09:01:18;;;;;;;26.75;13.93;;;10.60;99.90;;;;;;5158857;27;20486;-74
2022/03/26 09:03:46;;;;;;;;;;;10.80;99.90;;;;;;5150315;27;20027;-66
2022/03/26 09:06:14;;;;;;;25.60;13.00;;;10.90;99.90;;;;;;5148892;27;19926;-68
2022/03/26 09:08:41;;;;;;;23.15;13.50;;;10.90;99.90;;;;;;5146880;27;20279;-65
2022/03/26 09:11:08;;;;;;;23.83;12.52;;;11.00;99.90;;;;;;5149759;27;20051;-67
2022/03/26 09:13:35;;;;;;;22.45;12.63;;;11.20;99.90;;;;;;5149979;27;20483;-66
2022/03/26 09:16:02;;;;;;;24.58;11.77;;;11.30;99.90;;;;;;5147100;27;20076;-68
2022/03/26 09:18:29;;;;;;;22.77;11.55;;;11.50;99.90;;;;;;5149876;27;20038;-68
2022/03/26 09:20:56;;;;;;;21.13;12.13;;;11.50;99.70;;;;;;5148457;27;20050;-68
2022/03/26 09:23:24;;;;;;;22.92;11.77;;;11.50;99.30;;;;;;5147341;27;20084;-65
2022/03/26 09:25:51;;;;;;;21.23;12.20;;;11.70;98.70;;;;;;5149921;27;20487;-67
2022/03/26 09:28:18;;;;;;;29.67;14.23;;;11.80;98.80;;;;;;5150098;27;20506;-67
2022/03/26 09:30:45;;;;;;;22.85;12.90;;;11.80;98.50;;;;;;5149682;27;20047;-67
2022/03/26 09:33:12;;;;;;;;;;;11.90;97.90;;;;;;5145551;27;20039;-65
2022/03/26 09:35:39;;;;;;;26.45;11.43;;;12.00;97.90;;;;;;5138267;27;19925;-65
2022/03/26 09:38:06;;;;;;;21.65;11.40;;;12.10;98.30;;;;;;5149616;27;20050;-68
2022/03/26 09:40:34;;;;;;;20.33;11.43;;;12.30;97.00;;;;;;5144618;27;20868;-68
2022/03/26 09:43:02;;;;;;;19.88;11.30;;;12.50;97.20;;;;;;5149013;27;20621;-68
2022/03/26 09:45:29;;;;;;;23.98;11.88;;;12.70;96.90;;;;;;5148503;27;20168;-67
2022/03/26 09:47:56;;;;;;;21.40;12.50;;;13.00;95.80;;;;;;5149258;27;20035;-68
2022/03/26 09:50:24;;;;;;;22.15;11.88;;;13.20;95.00;;;;;;5132196;27;20062;-67
2022/03/26 09:52:50;;;;;;;23.42;11.55;;;13.20;95.30;;;;;;5148581;27;20095;-68
2022/03/26 09:55:21;;;;;;;;;;;13.20;94.20;;;;;;5148940;27;20043;-67
2022/03/26 09:57:49;;;;;;;23.63;12.13;;;13.20;94.10;;;;;;5148737;27;20005;-67
2022/03/26 10:00:17;;;;;;;23.13;12.38;;;13.30;93.60;;;;;;5145313;27;20035;-68
2022/03/26 10:02:44;;;;;;;22.40;11.57;;;13.40;93.50;;;;;;5148544;27;20039;-68
2022/03/26 10:05:12;;;;;;;;;;;13.40;92.80;;;;;;5149458;27;20114;-67
2022/03/26 10:07:40;;;;;;;22.73;12.35;;;13.50;92.70;;;;;;5135857;27;20398;-67
2022/03/26 10:10:12;;;;;;;27.67;14.95;;;13.50;92.40;;;;;;5135680;27;20042;-67
2022/03/26 10:12:42;;;;;;;20.30;12.05;;;13.70;91.70;;;;;;5133504;27;20376;-67
2022/03/26 10:15:09;;;;;;;25.48;12.48;;;13.80;91.10;;;;;;5134837;27;20536;-67
2022/03/26 10:17:37;;;;;;;21.27;11.98;;;13.90;90.70;;;;;;5134366;27;20045;-67
2022/03/26 10:20:12;;;;;;;22.88;11.50;;;14.00;90.20;;;;;;5134707;27;20084;-67
2022/03/26 10:22:41;;;;;;;20.60;11.80;;;14.20;89.30;;;;;;5131383;27;20035;-67
2022/03/26 10:25:18;;;;;;;21.80;11.93;;;14.20;88.20;;;;;;5134600;27;20464;-67
2022/03/26 10:27:48;;;;;;;21.63;12.48;;;14.40;88.30;;;;;;5134524;27;20039;-67
2022/03/26 10:30:17;;;;;;;21.40;12.38;;;14.50;86.10;;;;;;5130106;27;20801;-67
2022/03/26 10:32:49;;;;;;;23.30;11.95;;;14.40;85.70;;;;;;5134001;27;20051;-67
2022/03/26 10:35:25;;;;;;;21.13;12.15;;;14.50;85.90;;;;;;5132222;27;20091;-67
2022/03/26 10:38:01;;;;;;;29.67;13.13;;;14.60;83.60;;;;;;5134266;27;20039;-68
2022/03/26 10:40:37;;;;;;;28.15;13.57;;;14.70;81.90;;;;;;5132948;27;20046;-67
2022/03/26 10:43:11;;;;;;;24.83;13.48;;;14.90;80.70;;;;;;5132604;27;20038;-67
2022/03/26 10:45:52;;;;;;;29.00;12.80;;;15.00;80.30;;;;;;5134839;27;20043;-67
2022/03/26 10:48:34;;;;;;;24.55;13.32;;;15.10;80.60;;;;;;5133846;27;20039;-67
2022/03/26 10:51:06;;;;;;;25.70;13.50;;;15.20;81.20;;;;;;5133834;27;20047;-67
2022/03/26 10:53:39;;;;;;;24.27;13.30;;;15.30;82.30;;;;;;5134612;27;20039;-67
2022/03/26 10:56:08;;;;;;;27.65;13.45;;;15.40;78.30;;;;;;5134671;27;20073;-67
2022/03/26 10:58:36;;;;;;;36.38;15.13;;;15.40;78.00;;;;;;5130511;27;20057;-67
2022/03/26 11:01:04;;;;;;;25.40;13.65;;;15.50;76.90;;;;;;5113363;28;20043;-67
2022/03/26 11:03:32;;;;;;;26.02;13.85;;;15.40;78.30;;;;;;5113798;28;20641;-67
2022/03/26 11:06:00;;;;;;;27.92;14.32;;;15.60;77.80;;;;;;5126324;27;20075;-67
2022/03/26 11:08:32;;;;;;;27.60;14.55;;;15.60;79.70;;;;;;5134036;27;20087;-67
2022/03/26 11:11:03;;;;;;;25.52;14.13;;;15.70;78.20;;;;;;5133340;27;20043;-67
2022/03/26 11:13:32;;;;;;;26.92;14.93;;;15.70;78.30;;;;;;5130852;27;20166;-67
2022/03/26 11:16:03;;;;;;;27.85;14.25;;;15.80;78.70;;;;;;5132797;27;20042;-67
2022/03/26 11:19:03;;;;;;;31.75;15.10;;;15.80;76.30;;;;;;5136631;27;20440;-67
2022/03/26 11:21:49;;;;;;;27.27;14.85;;;15.80;77.30;;;;;;5137044;27;20036;-67
2022/03/26 11:24:41;;;;;;;30.55;16.27;;;15.90;79.80;;;;;;5136810;27;20041;-68
2022/03/26 11:27:32;;;;;;;33.83;16.08;;;15.90;80.40;;;;;;5134066;27;20432;-66
2022/03/26 11:30:15;;;;;;;30.70;17.33;;;16.00;82.30;;;;;;5130195;27;20088;-66
2022/03/26 11:32:45;;;;;;;34.45;19.83;;;16.10;82.00;;;;;;5133027;27;20182;-66
2022/03/26 11:35:16;;;;;;;38.15;19.45;;;16.10;85.10;;;;;;5133755;27;20035;-66
2022/03/26 11:37:58;;;;;;;37.95;18.85;;;16.20;83.50;;;;;;5133612;27;20039;-66
2022/03/26 11:40:46;;;;;;;37.00;19.02;;;16.10;81.80;;;;;;5126069;27;20050;-67
2022/03/26 11:43:19;;;;;;;39.13;19.95;;;16.20;83.20;;;;;;5128700;27;20039;-66
2022/03/26 11:51:28;;;;;;;37.83;21.25;;;16.30;83.80;;;;;;5127688;27;20043;-65
2022/03/26 11:54:04;;;;;;;44.20;21.25;;;16.30;85.60;;;;;;5133481;27;20445;-66
2022/03/26 11:56:34;;;;;;;37.00;21.42;;;16.30;83.60;;;;;;5132363;27;20042;-65
2022/03/26 11:59:05;;;;;;;41.53;20.13;;;16.30;83.50;;;;;;5130535;27;20533;-65
2022/03/26 12:01:36;;;;;;;42.35;20.30;;;16.30;83.70;;;;;;5132673;27;20680;-65
2022/03/26 12:04:10;;;;;;;40.13;21.30;;;16.40;83.10;;;;;;5133063;27;20134;-66
2022/03/26 12:07:03;;;;;;;38.42;20.77;;;16.50;81.70;;;;;;5129191;27;20036;-65
2022/03/26 12:09:39;;;;;;;35.35;19.27;;;16.40;79.60;;;;;;5126225;27;20380;-65
2022/03/26 12:12:13;;;;;;;39.47;20.10;;;16.50;78.90;;;;;;5131881;27;20513;-65
2022/03/26 12:15:02;;;;;;;40.15;20.23;;;16.60;78.60;;;;;;5131262;27;20047;-66
2022/03/26 12:17:43;;;;;;;34.53;19.05;;;16.60;80.00;;;;;;5137186;27;20698;-66
2022/03/26 12:20:42;;;;;;;35.58;20.38;;;16.70;77.10;;;;;;5141745;27;20118;-66
2022/03/26 12:23:28;;;;;;;38.42;19.58;;;16.80;77.70;;;;;;5147658;27;20046;-66
2022/03/26 12:26:02;;;;;;;36.30;20.27;;;16.80;76.60;;;;;;5131429;27;20043;-66
2022/03/26 12:28:29;;;;;;;34.10;18.58;;;16.90;76.10;;;;;;5132234;27;20100;-66
2022/03/26 12:31:04;;;;;;;34.67;18.17;;;16.90;76.10;;;;;;5136144;27;20125;-66
2022/03/26 12:33:46;;;;;;;38.60;19.30;;;17.00;74.70;;;;;;5138425;27;20483;-66
2022/03/26 12:36:15;;;;;;;39.80;20.15;;;17.10;75.90;;;;;;5140887;27;20058;-66
2022/03/26 12:38:53;;;;;;;36.88;19.38;;;17.20;74.80;;;;;;5141678;27;20072;-66
2022/03/26 12:41:20;;;;;;;32.75;18.13;;;17.30;77.20;;;;;;5139337;27;20095;-66
2022/03/26 12:43:56;;;;;;;36.20;18.67;;;17.30;72.70;;;;;;5136920;27;20080;-65
2022/03/26 12:46:34;;;;;;;41.53;18.67;;;17.30;72.90;;;;;;5131849;27;20051;-65
2022/03/26 12:49:18;;;;;;;37.45;20.17;;;17.30;71.10;;;;;;5130955;27;20035;-65
2022/03/26 12:51:50;;;;;;;35.38;18.70;;;17.30;71.20;;;;;;5129744;27;20250;-66
2022/03/26 12:54:17;;;;;;;38.22;18.42;;;17.30;70.50;;;;;;5132005;27;20481;-66
2022/03/26 12:56:44;;;;;;;33.42;17.60;;;17.40;70.10;;;;;;5132109;28;20112;-67
2022/03/26 12:59:14;;;;;;;36.00;18.55;;;17.60;72.00;;;;;;5132650;28;20046;-66
2022/03/26 13:01:45;;;;;;;37.30;18.80;;;17.60;70.80;;;;;;5125862;27;20043;-66
2022/03/26 13:04:16;;;;;;;37.03;18.25;;;17.80;68.80;;;;;;5132133;28;20433;-66
2022/03/26 13:06:43;;;;;;;32.55;18.35;;;17.80;68.60;;;;;;5131514;28;20043;-66
2022/03/26 13:09:11;;;;;;;32.58;17.85;;;17.70;69.90;;;;;;5132361;28;20122;-66
2022/03/26 13:11:38;;;;;;;30.80;16.67;;;17.80;70.20;;;;;;5123492;28;20043;-66
2022/03/26 13:14:06;;;;;;;33.13;18.35;;;17.90;70.90;;;;;;5123977;28;20100;-66
2022/03/26 13:16:34;;;;;;;30.67;17.08;;;17.90;68.80;;;;;;5132318;28;20103;-66
2022/03/26 13:19:09;;;;;;;30.58;18.08;;;17.90;68.80;;;;;;5120341;27;20065;-66
2022/03/26 13:21:39;;;;;;;35.83;18.77;;;17.80;67.90;;;;;;5127820;27;20360;-66
2022/03/26 13:24:08;;;;;;;31.45;17.77;;;17.90;68.40;;;;;;5130876;27;20117;-66
2022/03/26 13:26:49;;;;;;;33.47;18.33;;;18.00;68.50;;;;;;5141760;27;20034;-66
2022/03/26 13:29:21;;;;;;;35.38;18.70;;;18.00;67.90;;;;;;5140600;27;20067;-66
2022/03/26 13:32:00;;;;;;;31.13;17.33;;;18.00;69.50;;;;;;5141835;27;20046;-66
2022/03/26 13:34:33;;;;;;;34.88;18.92;;;18.00;69.80;;;;;;5140309;27;20063;-66
2022/03/26 13:37:08;;;;;;;29.77;16.33;;;17.90;67.30;;;;;;5134973;27;20035;-66
2022/03/26 13:39:38;;;;;;;34.90;18.30;;;17.80;67.60;;;;;;5140928;27;20113;-66
2022/03/26 13:42:10;;;;;;;33.03;17.30;;;17.80;69.20;;;;;;5141288;27;20479;-66
2022/03/26 13:44:38;;;;;;;33.72;18.08;;;17.90;68.50;;;;;;5142860;27;20035;-66
2022/03/26 13:47:05;;;;;;;33.88;18.55;;;18.00;67.20;;;;;;5144004;27;20380;-66
2022/03/26 13:49:34;;;;;;;29.67;17.95;;;18.00;66.80;;;;;;5137035;27;20490;-66
2022/03/26 13:52:23;;;;;;;32.60;17.45;;;18.00;69.10;;;;;;5135287;27;20054;-66
2022/03/26 13:54:50;;;;;;;33.15;17.92;;;17.90;67.60;;;;;;5134731;27;20039;-65
2022/03/26 13:57:27;;;;;;;32.33;17.80;;;17.90;67.50;;;;;;5128826;27;20050;-66
2022/03/26 13:59:54;;;;;;;34.53;18.13;;;17.90;67.80;;;;;;5135263;27;20043;-66
2022/03/26 14:02:27;;;;;;;33.20;18.13;;;18.00;66.10;;;;;;5135324;27;20440;-66